Time;durP1;ratioP1;P1;durP2;ratioP2;P2;SDS_P1;SDS_P2;PMS_P1;PMS_P2;Temp;Humidity;BMP_temperature;BMP_pressure;BME280_temperature;BME280_humidity;BME280_pressure;Samples;Min_cycle;Max_cycle;Signal;HPM_P1;HPM_P2
2021/01/09 00:01:01;;;;;;;0.98;0.98;;;2.90;99.90;;;;;;4938912;29;20190;-75
2021/01/09 00:03:27;;;;;;;1.77;1.67;;;2.80;99.90;;;;;;4938688;29;20638;-75
2021/01/09 00:05:53;;;;;;;1.50;1.40;;;2.60;99.90;;;;;;4938451;29;20203;-74
2021/01/09 00:08:19;;;;;;;1.88;1.73;;;2.60;99.90;;;;;;4938535;29;20635;-74
2021/01/09 00:10:47;;;;;;;1.08;0.98;;;2.60;99.90;;;;;;4938553;29;20260;-74
2021/01/09 00:13:13;;;;;;;1.33;1.33;;;2.70;99.90;;;;;;4921385;29;20185;-74
2021/01/09 00:15:38;;;;;;;0.47;0.47;;;2.70;99.90;;;;;;4937488;29;20187;-75
2021/01/09 00:20:29;;;;;;;1.42;1.38;;;2.80;99.90;;;;;;4921206;29;20182;-74
2021/01/09 00:22:55;;;;;;;1.85;1.75;;;2.90;99.90;;;;;;4938457;29;20175;-75
2021/01/09 00:25:20;;;;;;;1.55;1.50;;;2.90;99.90;;;;;;4938139;29;20187;-75
2021/01/09 00:27:46;;;;;;;3.65;1.95;;;2.80;99.90;;;;;;4938184;29;20274;-75
2021/01/09 00:30:12;;;;;;;1.75;1.38;;;2.70;99.90;;;;;;4938113;29;20229;-74
2021/01/09 00:32:38;;;;;;;2.63;2.40;;;2.50;99.90;;;;;;4921134;29;20171;-74
2021/01/09 00:35:07;;;;;;;1.67;1.58;;;2.50;99.90;;;;;;4938350;29;20250;-75
2021/01/09 00:37:33;;;;;;;2.30;2.10;;;2.50;99.90;;;;;;4938076;29;20167;-75
2021/01/09 00:39:58;;;;;;;4.18;3.75;;;2.70;99.90;;;;;;4938009;29;20262;-76
2021/01/09 00:42:24;;;;;;;0.75;0.75;;;2.80;99.90;;;;;;4937992;29;20250;-74
2021/01/09 00:44:50;;;;;;;0.88;0.88;;;2.60;99.90;;;;;;4937926;29;20199;-75
2021/01/09 00:47:15;;;;;;;2.90;1.27;;;2.60;99.90;;;;;;4937779;29;20238;-75
2021/01/09 00:49:41;;;;;;;2.90;1.90;;;2.60;99.90;;;;;;4920722;29;20254;-74
2021/01/09 00:52:06;;;;;;;4.30;3.35;;;2.60;99.90;;;;;;4938022;29;20167;-75
2021/01/09 00:54:32;;;;;;;0.95;0.88;;;2.40;99.90;;;;;;4937639;29;20557;-76
2021/01/09 00:56:58;;;;;;;35.05;3.28;;;2.50;99.90;;;;;;4937580;29;20172;-74
2021/01/09 00:59:24;;;;;;;2.03;1.63;;;2.70;99.90;;;;;;4937657;29;20219;-75
2021/01/09 01:01:51;;;;;;;8.68;3.83;;;2.40;99.90;;;;;;4937551;29;20167;-75
2021/01/09 01:04:17;;;;;;;1.20;1.10;;;2.40;99.90;;;;;;4937581;29;20182;-74
2021/01/09 01:06:43;;;;;;;1.85;1.20;;;2.30;99.90;;;;;;4920408;29;20203;-75
2021/01/09 01:09:10;;;;;;;2.65;1.52;;;2.30;99.90;;;;;;4937439;29;20178;-74
2021/01/09 01:11:36;;;;;;;0.50;0.50;;;2.20;99.90;;;;;;4937757;29;20171;-74
2021/01/09 01:14:01;;;;;;;16.90;2.78;;;2.10;99.90;;;;;;4937389;29;20172;-74
2021/01/09 01:16:27;;;;;;;0.70;0.70;;;1.90;99.90;;;;;;4937283;29;20685;-74
2021/01/09 01:18:52;;;;;;;0.47;0.47;;;1.60;99.90;;;;;;4952313;29;20168;-75
2021/01/09 01:21:18;;;;;;;0.95;0.95;;;1.70;99.90;;;;;;4937208;29;20238;-75
2021/01/09 01:23:44;;;;;;;1.00;1.00;;;1.80;99.90;;;;;;4937217;29;20518;-79
2021/01/09 01:26:11;;;;;;;0.50;0.50;;;1.80;99.90;;;;;;4937067;29;20230;-78
2021/01/09 01:28:37;;;;;;;0.55;0.55;;;1.80;99.90;;;;;;4937169;29;20175;-74
2021/01/09 01:31:03;;;;;;;0.77;0.77;;;1.70;99.90;;;;;;4937203;29;20168;-74
2021/01/09 01:33:29;;;;;;;0.60;0.60;;;1.70;99.90;;;;;;4937002;29;20175;-75
2021/01/09 01:35:55;;;;;;;0.73;0.73;;;1.70;99.90;;;;;;4937041;29;21032;-74
2021/01/09 01:38:20;;;;;;;0.55;0.55;;;1.80;99.90;;;;;;4937002;29;20198;-75
2021/01/09 01:40:46;;;;;;;0.82;0.82;;;1.70;99.90;;;;;;4936865;29;20208;-75
2021/01/09 01:43:12;;;;;;;0.98;0.98;;;1.80;99.90;;;;;;4937068;29;20171;-74
2021/01/09 01:45:39;;;;;;;0.98;0.95;;;1.80;99.90;;;;;;4936646;29;20265;-74
2021/01/09 01:48:10;;;;;;;3.33;1.77;;;1.70;99.90;;;;;;4936881;29;20627;-74
2021/01/09 01:50:37;;;;;;;1.08;0.98;;;1.50;99.90;;;;;;4936980;29;20155;-74
2021/01/09 01:53:03;;;;;;;1.33;1.23;;;1.50;99.90;;;;;;4936702;29;20167;-74
2021/01/09 01:55:30;;;;;;;0.98;0.98;;;1.60;99.90;;;;;;4936510;29;20199;-74
2021/01/09 01:57:56;;;;;;;1.08;1.08;;;1.70;99.90;;;;;;4936534;29;20159;-75
2021/01/09 02:00:24;;;;;;;0.68;0.68;;;1.60;99.90;;;;;;4936413;29;20750;-74
2021/01/09 02:02:51;;;;;;;0.68;0.68;;;1.70;99.90;;;;;;4936525;29;20186;-74
2021/01/09 02:05:25;;;;;;;0.40;0.40;;;1.70;99.90;;;;;;4936438;29;20250;-74
2021/01/09 02:07:55;;;;;;;1.42;1.42;;;1.50;99.90;;;;;;4919312;29;20217;-74
2021/01/09 02:10:24;;;;;;;1.17;1.17;;;1.50;99.90;;;;;;4936383;29;20167;-73
2021/01/09 02:13:07;;;;;;;1.23;1.23;;;1.30;99.90;;;;;;4936365;29;20171;-73
2021/01/09 02:15:34;;;;;;;0.50;0.50;;;1.20;99.90;;;;;;4936231;29;20201;-76
2021/01/09 02:18:01;;;;;;;4.03;2.05;;;1.20;99.90;;;;;;4936362;29;20163;-74
2021/01/09 02:20:28;;;;;;;2.57;1.70;;;1.20;99.90;;;;;;4936245;29;20179;-76
2021/01/09 02:22:55;;;;;;;1.13;1.08;;;1.40;99.90;;;;;;4936278;29;20533;-73
2021/01/09 02:25:21;;;;;;;1.88;1.55;;;1.50;99.90;;;;;;4936020;29;20191;-77
2021/01/09 02:27:46;;;;;;;0.98;0.85;;;1.40;99.90;;;;;;4936073;29;20257;-75
2021/01/09 02:30:14;;;;;;;2.13;2.00;;;1.30;99.90;;;;;;4936086;29;20202;-76
2021/01/09 02:33:07;;;;;;;1.40;1.33;;;1.40;99.90;;;;;;4936052;29;20226;-76
2021/01/09 02:35:36;;;;;;;0.77;0.77;;;1.40;99.90;;;;;;4935021;29;20239;-75
2021/01/09 02:38:02;;;;;;;1.17;1.17;;;1.20;99.90;;;;;;4936098;29;20179;-76
2021/01/09 02:40:27;;;;;;;0.70;0.70;;;1.20;99.90;;;;;;4935504;29;20167;-76
2021/01/09 02:42:53;;;;;;;1.70;1.43;;;1.20;99.90;;;;;;4936019;29;20178;-75
2021/01/09 02:45:18;;;;;;;1.67;1.57;;;1.20;99.90;;;;;;4935792;29;20289;-76
2021/01/09 02:47:44;;;;;;;1.13;1.02;;;1.20;99.90;;;;;;4935819;29;20206;-76
2021/01/09 02:50:10;;;;;;;0.57;0.57;;;1.20;99.90;;;;;;4936002;29;20178;-76
2021/01/09 02:52:40;;;;;;;0.90;0.90;;;1.10;99.90;;;;;;4935826;29;20230;-75
2021/01/09 02:55:07;;;;;;;3.77;2.80;;;1.10;99.90;;;;;;4935776;29;20214;-76
2021/01/09 02:57:33;;;;;;;0.60;0.60;;;1.10;99.90;;;;;;4935850;29;20881;-75
2021/01/09 02:59:58;;;;;;;1.33;1.33;;;1.10;99.90;;;;;;4935492;29;20246;-76
2021/01/09 03:02:24;;;;;;;3.42;3.13;;;0.80;99.90;;;;;;4935788;29;20194;-75
2021/01/09 03:04:49;;;;;;;0.83;0.83;;;0.80;99.90;;;;;;4935647;29;20190;-79
2021/01/09 03:07:15;;;;;;;2.55;2.35;;;0.90;99.90;;;;;;4935695;29;20195;-76
2021/01/09 03:09:40;;;;;;;2.05;1.95;;;1.00;99.90;;;;;;4935791;29;20172;-76
2021/01/09 03:12:07;;;;;;;1.95;1.05;;;1.10;99.90;;;;;;4935610;29;20628;-75
2021/01/09 03:14:32;;;;;;;1.03;1.00;;;1.10;99.90;;;;;;4935931;29;20191;-76
2021/01/09 03:16:58;;;;;;;0.75;0.75;;;1.20;99.90;;;;;;4935633;29;20302;-78
2021/01/09 03:19:24;;;;;;;2.33;1.23;;;1.20;99.90;;;;;;4935698;29;20590;-77
2021/01/09 03:21:49;;;;;;;1.27;1.27;;;1.30;99.90;;;;;;4935661;29;20164;-76
2021/01/09 03:24:15;;;;;;;3.08;1.23;;;1.20;99.90;;;;;;4935476;29;20271;-76
2021/01/09 03:26:41;;;;;;;1.20;1.15;;;1.00;99.90;;;;;;4935504;29;20201;-76
2021/01/09 03:29:07;;;;;;;1.57;1.47;;;1.00;99.90;;;;;;4918379;29;20175;-76
2021/01/09 03:31:32;;;;;;;0.57;0.57;;;1.00;99.90;;;;;;4935607;29;20163;-76
2021/01/09 03:33:58;;;;;;;1.50;1.43;;;1.10;99.90;;;;;;4935410;29;20250;-77
2021/01/09 03:36:23;;;;;;;2.08;1.20;;;1.10;99.90;;;;;;4935316;29;20187;-77
2021/01/09 03:38:49;;;;;;;0.73;0.73;;;1.20;99.90;;;;;;4935429;29;20172;-77
2021/01/09 03:41:15;;;;;;;0.60;0.60;;;1.40;99.90;;;;;;4935478;29;20160;-77
2021/01/09 03:43:40;;;;;;;2.73;2.40;;;1.50;99.90;;;;;;4935322;29;20168;-76
2021/01/09 03:46:06;;;;;;;2.23;1.27;;;1.60;99.90;;;;;;4935186;29;20260;-76
2021/01/09 03:48:31;;;;;;;1.03;1.03;;;1.70;99.90;;;;;;4935359;29;20554;-76
2021/01/09 03:50:57;;;;;;;1.47;1.47;;;1.50;99.90;;;;;;4950571;28;20167;-75
2021/01/09 03:53:23;;;;;;;0.60;0.60;;;1.40;99.90;;;;;;4938977;29;20230;-76
2021/01/09 03:55:48;;;;;;;1.27;1.17;;;1.50;99.90;;;;;;4938711;29;20211;-77
2021/01/09 03:58:14;;;;;;;1.20;1.20;;;1.60;99.90;;;;;;4938867;29;20171;-76
2021/01/09 04:00:39;;;;;;;0.60;0.60;;;1.60;99.90;;;;;;4938611;29;20225;-74
2021/01/09 04:03:05;;;;;;;1.60;1.50;;;1.50;99.90;;;;;;4938765;29;20211;-76
2021/01/09 04:05:30;;;;;;;0.67;0.67;;;1.40;99.90;;;;;;4938580;29;20191;-76
2021/01/09 04:07:56;;;;;;;2.40;1.80;;;1.50;99.90;;;;;;4938594;29;20206;-77
2021/01/09 04:10:22;;;;;;;0.97;0.97;;;1.90;99.90;;;;;;4938518;29;20171;-77
2021/01/09 04:12:47;;;;;;;2.47;1.80;;;2.10;99.90;;;;;;4938476;29;20167;-76
2021/01/09 04:15:13;;;;;;;11.38;2.63;;;1.80;99.90;;;;;;4938487;29;20194;-76
2021/01/09 04:17:39;;;;;;;0.83;0.83;;;2.00;99.90;;;;;;4938421;29;20218;-76
2021/01/09 04:20:05;;;;;;;1.17;1.17;;;1.90;99.90;;;;;;4938383;29;20258;-76
2021/01/09 04:22:31;;;;;;;1.60;1.53;;;1.70;99.90;;;;;;4938287;29;20171;-73
2021/01/09 04:24:56;;;;;;;2.00;1.80;;;1.80;99.90;;;;;;4938366;29;20198;-76
2021/01/09 04:27:22;;;;;;;1.37;1.37;;;2.00;99.90;;;;;;4938278;29;20690;-76
2021/01/09 04:29:48;;;;;;;4.10;2.23;;;2.00;99.90;;;;;;4921212;29;20178;-76
2021/01/09 04:32:13;;;;;;;3.50;1.70;;;2.10;99.90;;;;;;4938239;29;20286;-77
2021/01/09 04:34:40;;;;;;;2.90;2.70;;;2.00;99.90;;;;;;4938148;29;20195;-76
2021/01/09 04:37:06;;;;;;;0.70;0.70;;;1.70;99.90;;;;;;4938058;29;20639;-77
2021/01/09 04:39:32;;;;;;;1.70;1.67;;;1.70;99.90;;;;;;4937978;29;20167;-76
2021/01/09 04:41:57;;;;;;;0.77;0.77;;;1.60;99.90;;;;;;4938005;29;20227;-78
2021/01/09 04:44:23;;;;;;;1.05;1.05;;;1.70;99.90;;;;;;4937870;29;20175;-75
2021/01/09 04:46:56;;;;;;;1.63;1.53;;;1.40;99.90;;;;;;4937861;29;20226;-76
2021/01/09 04:49:27;;;;;;;2.10;1.70;;;1.80;99.90;;;;;;4937838;29;20226;-76
2021/01/09 04:51:54;;;;;;;1.57;1.47;;;2.10;99.90;;;;;;4937857;29;20163;-76
2021/01/09 04:54:21;;;;;;;0.90;0.90;;;2.10;99.90;;;;;;4937621;29;20168;-76
2021/01/09 04:56:50;;;;;;;1.47;1.37;;;2.00;99.90;;;;;;4920583;29;20180;-76
2021/01/09 04:59:17;;;;;;;1.23;1.13;;;2.00;99.90;;;;;;4937597;29;20266;-76
2021/01/09 05:01:44;;;;;;;0.67;0.67;;;1.70;99.90;;;;;;4937311;29;20178;-75
2021/01/09 05:04:11;;;;;;;1.57;0.70;;;1.90;99.90;;;;;;4937542;29;20568;-75
2021/01/09 05:06:41;;;;;;;1.40;1.30;;;2.20;99.90;;;;;;4937475;29;20199;-75
2021/01/09 05:09:07;;;;;;;1.17;1.17;;;2.30;99.90;;;;;;4937333;29;20737;-76
2021/01/09 05:11:38;;;;;;;0.40;0.40;;;2.20;99.90;;;;;;4920774;29;20534;-76
2021/01/09 05:14:05;;;;;;;1.93;0.77;;;2.20;99.90;;;;;;4937883;29;20217;-76
2021/01/09 05:16:31;;;;;;;1.27;1.23;;;2.00;99.90;;;;;;4920355;29;20182;-76
2021/01/09 05:18:57;;;;;;;2.33;1.17;;;1.80;99.90;;;;;;4937263;29;20179;-76
2021/01/09 05:21:24;;;;;;;0.30;0.30;;;1.90;99.90;;;;;;4937180;29;20662;-76
2021/01/09 05:24:00;;;;;;;1.33;1.33;;;1.50;99.90;;;;;;4920212;29;20190;-76
2021/01/09 05:26:26;;;;;;;1.57;1.47;;;1.30;99.90;;;;;;4936979;29;20203;-75
2021/01/09 05:28:57;;;;;;;0.57;0.57;;;1.50;99.90;;;;;;4937386;29;20171;-76
2021/01/09 05:31:24;;;;;;;0.43;0.43;;;1.30;99.90;;;;;;4937071;29;20198;-76
2021/01/09 05:33:51;;;;;;;1.63;1.60;;;1.50;99.90;;;;;;4936977;29;20218;-76
2021/01/09 05:36:18;;;;;;;0.80;0.80;;;1.50;99.90;;;;;;4936863;29;20274;-76
2021/01/09 05:38:45;;;;;;;1.27;1.23;;;1.60;99.90;;;;;;4936896;29;20222;-76
2021/01/09 05:41:13;;;;;;;0.93;0.80;;;1.60;99.90;;;;;;4936888;29;20608;-76
2021/01/09 05:43:39;;;;;;;0.80;0.80;;;1.50;99.90;;;;;;4936817;29;20631;-73
2021/01/09 05:46:06;;;;;;;0.93;0.93;;;1.50;99.90;;;;;;4936664;29;20207;-73
2021/01/09 05:48:33;;;;;;;0.57;0.57;;;1.40;99.90;;;;;;4919701;29;20641;-76
2021/01/09 05:51:03;;;;;;;1.43;1.33;;;1.60;99.90;;;;;;4936718;29;20171;-77
2021/01/09 05:53:35;;;;;;;0.70;0.70;;;1.80;99.90;;;;;;4936651;29;20182;-76
2021/01/09 05:56:01;;;;;;;1.63;1.57;;;1.50;99.90;;;;;;4936592;29;20199;-76
2021/01/09 05:58:27;;;;;;;0.60;0.60;;;1.70;99.90;;;;;;4936488;29;20526;-76
2021/01/09 06:00:56;;;;;;;1.00;1.00;;;1.60;99.90;;;;;;4936518;29;20215;-76
2021/01/09 06:03:50;;;;;;;1.23;1.13;;;1.80;99.90;;;;;;4936617;29;20258;-76
2021/01/09 06:06:36;;;;;;;0.60;0.60;;;1.50;99.90;;;;;;4925464;29;20683;-76
2021/01/09 06:09:07;;;;;;;1.43;1.30;;;1.20;99.90;;;;;;4925565;29;20182;-76
2021/01/09 06:11:41;;;;;;;1.97;1.77;;;1.10;99.90;;;;;;4951084;29;20183;-76
2021/01/09 06:14:08;;;;;;;1.27;1.27;;;1.30;99.90;;;;;;4935614;29;20163;-75
2021/01/09 06:16:37;;;;;;;0.67;0.67;;;1.30;99.90;;;;;;4935065;29;20529;-76
2021/01/09 06:19:03;;;;;;;2.20;1.97;;;1.50;99.90;;;;;;4936109;29;20194;-76
2021/01/09 06:21:31;;;;;;;0.97;0.97;;;1.70;99.90;;;;;;4936295;29;20199;-76
2021/01/09 06:23:58;;;;;;;0.90;0.90;;;1.80;99.90;;;;;;4936097;29;20246;-76
2021/01/09 06:26:26;;;;;;;0.83;0.83;;;1.80;99.90;;;;;;4935935;29;20207;-75
2021/01/09 06:28:58;;;;;;;0.20;0.20;;;1.50;99.90;;;;;;4936118;29;20171;-76
2021/01/09 06:31:26;;;;;;;0.40;0.40;;;1.30;99.90;;;;;;4936142;29;20263;-76
2021/01/09 06:33:54;;;;;;;0.60;0.60;;;1.30;99.90;;;;;;4936051;29;20163;-75
2021/01/09 06:36:22;;;;;;;0.63;0.63;;;1.50;99.90;;;;;;4935896;29;20183;-75
2021/01/09 06:38:57;;;;;;;1.90;1.20;;;1.40;99.90;;;;;;4935817;29;20167;-75
2021/01/09 06:41:30;;;;;;;1.80;1.17;;;1.30;99.90;;;;;;4918864;29;20190;-77
2021/01/09 06:43:55;;;;;;;1.27;1.27;;;1.20;99.90;;;;;;4918879;29;20238;-76
2021/01/09 06:46:35;;;;;;;0.67;0.67;;;1.20;99.90;;;;;;4935638;29;20223;-76
2021/01/09 06:49:01;;;;;;;0.77;0.77;;;1.30;99.90;;;;;;4935786;29;20634;-76
2021/01/09 06:51:45;;;;;;;1.17;1.17;;;1.10;99.90;;;;;;4935787;29;20175;-76
2021/01/09 06:54:13;;;;;;;0.90;0.90;;;1.10;99.90;;;;;;4935754;29;20163;-76
2021/01/09 06:56:39;;;;;;;2.17;1.87;;;1.30;99.90;;;;;;4918600;29;20175;-76
2021/01/09 06:59:05;;;;;;;0.50;0.50;;;1.60;99.90;;;;;;4920645;29;20277;-76
2021/01/09 07:01:37;;;;;;;1.43;1.33;;;1.50;99.90;;;;;;4935828;29;20159;-76
2021/01/09 07:04:03;;;;;;;0.80;0.80;;;1.20;99.90;;;;;;4935725;29;20178;-76
2021/01/09 07:06:58;;;;;;;0.83;0.70;;;1.10;99.90;;;;;;4935763;29;20235;-76
2021/01/09 07:09:25;;;;;;;2.60;1.67;;;1.10;99.90;;;;;;4935740;29;20179;-76
2021/01/09 07:11:53;;;;;;;0.40;0.40;;;1.30;99.90;;;;;;4935698;29;20167;-76
2021/01/09 07:14:19;;;;;;;0.93;0.93;;;1.40;99.90;;;;;;4935518;29;20194;-76
2021/01/09 07:16:47;;;;;;;0.63;0.63;;;1.40;99.90;;;;;;4966300;28;20282;-79
2021/01/09 07:19:16;;;;;;;0.77;0.77;;;1.20;99.90;;;;;;4935655;29;20174;-79
2021/01/09 07:21:45;;;;;;;1.43;1.33;;;1.20;99.90;;;;;;4935500;29;20238;-76
2021/01/09 07:24:14;;;;;;;1.17;1.17;;;1.20;99.90;;;;;;4935366;29;20627;-76
2021/01/09 07:26:41;;;;;;;1.53;1.43;;;1.10;99.90;;;;;;4938723;29;20203;-76
2021/01/09 07:29:07;;;;;;;0.90;0.90;;;1.00;99.90;;;;;;4954007;29;20174;-80
2021/01/09 07:31:39;;;;;;;0.63;0.63;;;0.80;99.90;;;;;;4938100;29;20179;-80
2021/01/09 07:34:06;;;;;;;0.83;0.83;;;0.70;99.90;;;;;;4939161;29;20230;-74
2021/01/09 07:36:34;;;;;;;0.47;0.47;;;0.90;99.90;;;;;;4938840;29;20187;-76
2021/01/09 07:39:03;;;;;;;3.03;0.87;;;1.00;99.90;;;;;;4939070;29;20234;-75
2021/01/09 07:41:37;;;;;;;0.60;0.60;;;0.90;99.90;;;;;;4938921;29;20163;-75
2021/01/09 07:44:18;;;;;;;0.77;0.77;;;0.90;99.90;;;;;;4938907;29;20172;-75
2021/01/09 07:46:56;;;;;;;0.37;0.37;;;1.00;99.90;;;;;;4938805;29;20207;-75
2021/01/09 07:49:29;;;;;;;0.93;0.93;;;1.10;99.90;;;;;;4939057;29;20521;-75
2021/01/09 07:52:23;;;;;;;3.50;2.33;;;1.00;99.90;;;;;;4937614;29;20171;-76
2021/01/09 07:54:51;;;;;;;2.93;1.80;;;0.90;99.90;;;;;;4938588;29;20218;-75
2021/01/09 07:57:19;;;;;;;2.43;2.17;;;0.90;99.90;;;;;;4938695;29;20176;-75
2021/01/09 07:59:53;;;;;;;0.60;0.60;;;0.90;99.90;;;;;;4938560;29;20219;-76
2021/01/09 08:02:39;;;;;;;0.83;0.83;;;0.80;99.90;;;;;;4938527;29;20568;-76
2021/01/09 08:05:10;;;;;;;1.27;1.27;;;0.80;99.90;;;;;;4938449;29;20580;-75
2021/01/09 08:07:43;;;;;;;0.80;0.80;;;1.00;99.90;;;;;;4938398;29;20211;-75
2021/01/09 08:10:27;;;;;;;0.57;0.57;;;1.20;99.90;;;;;;4938447;29;20175;-75
2021/01/09 08:13:13;;;;;;;1.73;1.63;;;1.30;99.90;;;;;;4938129;29;20178;-75
2021/01/09 08:15:38;;;;;;;2.53;2.43;;;1.00;99.90;;;;;;4937987;29;20223;-75
2021/01/09 08:18:06;;;;;;;0.70;0.70;;;1.10;99.90;;;;;;4938375;29;20167;-75
2021/01/09 08:20:32;;;;;;;0.57;0.57;;;1.00;99.90;;;;;;4938209;29;20176;-80
2021/01/09 08:22:59;;;;;;;5.00;1.80;;;1.30;99.90;;;;;;4938163;29;20174;-78
2021/01/09 08:25:32;;;;;;;1.37;1.27;;;1.20;99.90;;;;;;4938075;29;20269;-78
2021/01/09 08:28:00;;;;;;;0.80;0.80;;;1.10;99.90;;;;;;4937950;29;20290;-74
2021/01/09 08:30:30;;;;;;;1.60;1.50;;;0.80;99.90;;;;;;4938189;29;20167;-75
2021/01/09 08:33:10;;;;;;;1.83;1.70;;;0.60;99.90;;;;;;4938243;29;20159;-75
2021/01/09 08:35:40;;;;;;;0.60;0.60;;;0.70;99.90;;;;;;4938112;29;20197;-74
2021/01/09 08:38:06;;;;;;;5.93;1.37;;;0.90;99.90;;;;;;4937351;29;20160;-76
2021/01/09 08:40:33;;;;;;;14.37;1.63;;;1.20;99.90;;;;;;4937895;29;20175;-75
2021/01/09 08:43:09;;;;;;;1.17;1.07;;;1.40;99.90;;;;;;4938027;29;20234;-75
2021/01/09 08:45:39;;;;;;;2.40;1.07;;;1.40;99.90;;;;;;4937395;29;20647;-74
2021/01/09 08:48:07;;;;;;;0.30;0.30;;;1.50;99.90;;;;;;4937677;29;20285;-74
2021/01/09 08:50:34;;;;;;;2.67;2.20;;;1.30;99.90;;;;;;4937588;29;20171;-74
2021/01/09 08:53:01;;;;;;;7.00;3.07;;;1.40;99.90;;;;;;4937765;29;20643;-75
2021/01/09 08:55:29;;;;;;;4.00;3.00;;;1.50;99.90;;;;;;4937405;29;20547;-74
2021/01/09 08:57:58;;;;;;;0.30;0.30;;;1.50;99.90;;;;;;4937538;29;20167;-74
2021/01/09 09:00:24;;;;;;;3.70;1.67;;;1.50;99.90;;;;;;4937463;29;20219;-74
2021/01/09 09:02:50;;;;;;;1.03;1.03;;;1.40;99.90;;;;;;4937321;29;20218;-74
2021/01/09 09:05:17;;;;;;;1.10;1.07;;;1.30;99.90;;;;;;4937531;29;20222;-74
2021/01/09 09:07:46;;;;;;;5.03;3.07;;;1.20;99.90;;;;;;4937238;29;20203;-75
2021/01/09 09:10:14;;;;;;;3.07;2.83;;;1.50;99.90;;;;;;4937234;29;20188;-74
2021/01/09 09:12:40;;;;;;;0.50;0.50;;;1.50;99.90;;;;;;4937395;29;20167;-74
2021/01/09 09:15:10;;;;;;;1.90;1.80;;;1.50;99.90;;;;;;4937358;29;20191;-76
2021/01/09 09:17:37;;;;;;;0.97;0.97;;;1.50;99.90;;;;;;4936815;29;20573;-75
2021/01/09 09:20:04;;;;;;;1.43;1.40;;;1.30;99.90;;;;;;4937042;29;20658;-77
2021/01/09 09:22:30;;;;;;;11.80;2.20;;;1.40;99.90;;;;;;4937063;29;20179;-76
2021/01/09 09:24:56;;;;;;;2.33;2.17;;;1.40;99.90;;;;;;4937226;29;20214;-74
2021/01/09 09:27:23;;;;;;;1.40;1.20;;;1.50;99.90;;;;;;4936865;29;20199;-75
2021/01/09 09:29:49;;;;;;;2.50;2.33;;;1.20;99.90;;;;;;4937102;29;20183;-76
2021/01/09 09:32:22;;;;;;;0.60;0.60;;;1.40;99.90;;;;;;4936966;29;20179;-76
2021/01/09 09:34:48;;;;;;;0.73;0.73;;;1.50;99.90;;;;;;4937067;29;20191;-75
2021/01/09 09:37:14;;;;;;;0.50;0.50;;;1.50;99.90;;;;;;4936988;29;20537;-77
2021/01/09 09:39:39;;;;;;;1.87;0.67;;;1.70;99.90;;;;;;4936602;29;20179;-79
2021/01/09 09:42:05;;;;;;;2.35;2.22;;;1.80;99.90;;;;;;4951452;29;20203;-78
2021/01/09 09:44:34;;;;;;;17.73;2.92;;;1.60;99.90;;;;;;4936493;29;20187;-78
2021/01/09 09:47:00;;;;;;;2.33;2.13;;;1.60;99.90;;;;;;4919057;29;20543;-80
2021/01/09 09:49:26;;;;;;;5.82;2.88;;;1.70;99.90;;;;;;4919232;29;20175;-79
2021/01/09 09:51:52;;;;;;;1.60;1.50;;;1.80;99.90;;;;;;4936626;29;20705;-79
2021/01/09 09:54:32;;;;;;;2.00;1.93;;;1.80;99.90;;;;;;4950938;29;20514;-81
2021/01/09 09:56:59;;;;;;;1.83;1.73;;;1.90;99.90;;;;;;4936281;29;20178;-81
2021/01/09 09:59:29;;;;;;;0.35;0.35;;;1.90;99.90;;;;;;4955430;28;20249;-81
2021/01/09 10:02:01;;;;;;;7.43;3.43;;;1.90;99.90;;;;;;4936569;29;20168;-80
2021/01/09 10:04:28;;;;;;;0.93;0.93;;;2.00;99.90;;;;;;4935069;29;20198;-82
2021/01/09 10:06:55;;;;;;;0.73;0.73;;;1.90;99.90;;;;;;4935335;29;20314;-80
2021/01/09 10:09:24;;;;;;;0.93;0.93;;;2.00;99.90;;;;;;4936306;29;20172;-81
2021/01/09 10:11:51;;;;;;;1.10;1.10;;;2.40;99.90;;;;;;4935059;29;20627;-82
2021/01/09 10:14:17;;;;;;;2.93;1.97;;;2.50;99.90;;;;;;4935821;29;20160;-76
2021/01/09 10:16:43;;;;;;;1.30;1.30;;;2.80;99.90;;;;;;4936126;29;20217;-78
2021/01/09 10:19:13;;;;;;;2.47;1.52;;;2.80;99.90;;;;;;4934827;29;20175;-76
2021/01/09 10:21:39;;;;;;;2.55;2.33;;;2.60;99.90;;;;;;4936160;29;20159;-76
2021/01/09 10:24:05;;;;;;;3.42;2.25;;;2.70;99.90;;;;;;4935844;29;20178;-77
2021/01/09 10:26:32;;;;;;;1.67;1.60;;;2.50;99.90;;;;;;4935699;29;20210;-76
2021/01/09 10:29:00;;;;;;;1.23;1.23;;;2.50;99.90;;;;;;4936127;29;20178;-76
2021/01/09 10:31:37;;;;;;;1.75;1.20;;;2.50;99.90;;;;;;4936077;29;20724;-76
2021/01/09 10:34:04;;;;;;;2.97;2.72;;;2.60;99.90;;;;;;4935842;29;20178;-76
2021/01/09 10:36:32;;;;;;;38.65;1.42;;;2.70;99.90;;;;;;4935789;29;20511;-76
2021/01/09 10:38:58;;;;;;;5.13;2.25;;;2.60;99.90;;;;;;4935878;29;20164;-77
2021/01/09 10:41:24;;;;;;;7.13;1.85;;;2.70;99.90;;;;;;4935774;29;20496;-76
2021/01/09 10:43:50;;;;;;;1.35;1.35;;;2.70;99.90;;;;;;4935678;29;20186;-76
2021/01/09 10:46:26;;;;;;;2.28;2.08;;;2.80;99.90;;;;;;4935555;29;20198;-78
2021/01/09 10:48:52;;;;;;;1.05;1.05;;;2.80;99.90;;;;;;4935698;29;20623;-79
2021/01/09 10:51:22;;;;;;;3.03;2.75;;;2.90;99.90;;;;;;4935709;29;20573;-78
2021/01/09 10:53:48;;;;;;;2.28;2.15;;;3.00;99.90;;;;;;4935889;29;20172;-78
2021/01/09 10:56:14;;;;;;;7.70;3.35;;;3.20;99.90;;;;;;4934448;29;20191;-78
2021/01/09 10:58:41;;;;;;;26.10;2.88;;;3.10;99.90;;;;;;4933917;29;20627;-83
2021/01/09 11:01:07;;;;;;;1.48;1.38;;;3.10;99.90;;;;;;4918192;29;20217;-81
2021/01/09 11:03:33;;;;;;;3.63;3.33;;;3.40;99.90;;;;;;4918432;29;20623;-82
2021/01/09 11:05:59;;;;;;;1.05;1.05;;;3.50;99.90;;;;;;4934975;29;20215;-76
2021/01/09 11:08:26;;;;;;;7.25;2.90;;;3.50;99.90;;;;;;4935557;29;20175;-76
2021/01/09 11:10:53;;;;;;;3.72;2.25;;;3.40;99.90;;;;;;4935293;29;20242;-76
2021/01/09 11:13:18;;;;;;;1.80;1.70;;;3.70;99.90;;;;;;4935601;29;20171;-76
2021/01/09 11:15:46;;;;;;;2.00;0.95;;;3.80;99.90;;;;;;4918403;29;20191;-76
2021/01/09 11:18:12;;;;;;;2.40;2.20;;;3.80;99.90;;;;;;4918504;29;20171;-75
2021/01/09 11:20:38;;;;;;;1.40;1.02;;;3.80;99.90;;;;;;4935522;29;20710;-76
2021/01/09 11:23:04;;;;;;;1.20;1.20;;;3.70;99.90;;;;;;4935232;29;20174;-77
2021/01/09 11:25:29;;;;;;;1.75;1.65;;;3.80;99.90;;;;;;4935357;29;20543;-77
2021/01/09 11:27:55;;;;;;;0.98;0.98;;;3.90;99.90;;;;;;4946596;29;20221;-79
2021/01/09 11:30:21;;;;;;;1.27;1.27;;;3.90;99.90;;;;;;4938722;29;20250;-78
2021/01/09 11:32:46;;;;;;;2.35;2.25;;;3.80;99.90;;;;;;4932964;29;20175;-76
2021/01/09 11:35:12;;;;;;;2.85;2.65;;;3.90;99.90;;;;;;4934378;29;20218;-76
2021/01/09 11:37:37;;;;;;;2.97;2.78;;;3.90;99.90;;;;;;4934232;29;20179;-76
2021/01/09 11:40:04;;;;;;;2.72;1.88;;;3.80;99.90;;;;;;4934849;29;20167;-82
2021/01/09 11:42:30;;;;;;;9.23;1.67;;;3.90;99.90;;;;;;4933257;29;20175;-82
2021/01/09 11:44:56;;;;;;;1.80;1.70;;;4.00;99.90;;;;;;4934194;29;20199;-76
2021/01/09 11:47:22;;;;;;;0.98;0.98;;;4.00;99.90;;;;;;4935248;29;20214;-80
2021/01/09 11:49:47;;;;;;;2.33;2.22;;;4.10;99.90;;;;;;4917866;29;20533;-76
2021/01/09 11:52:13;;;;;;;1.27;1.27;;;4.30;99.90;;;;;;4917340;29;20254;-76
2021/01/09 11:54:38;;;;;;;1.50;1.40;;;4.40;99.90;;;;;;4934634;29;20550;-77
2021/01/09 11:57:04;;;;;;;5.72;4.68;;;4.50;99.90;;;;;;4934641;29;20171;-76
2021/01/09 11:59:30;;;;;;;1.63;1.52;;;4.60;99.90;;;;;;4934934;29;20266;-77
2021/01/09 12:01:55;;;;;;;1.27;1.27;;;4.50;99.90;;;;;;4935070;29;20207;-75
2021/01/09 12:04:21;;;;;;;1.27;1.27;;;4.40;99.90;;;;;;4934954;29;20167;-76
2021/01/09 12:06:47;;;;;;;1.95;1.90;;;4.50;99.90;;;;;;4934476;29;20270;-76
2021/01/09 12:09:12;;;;;;;2.05;1.88;;;4.50;99.90;;;;;;4934729;29;20167;-76
2021/01/09 12:11:38;;;;;;;1.48;1.48;;;4.60;99.90;;;;;;4918041;29;20227;-76
2021/01/09 12:14:05;;;;;;;2.13;2.03;;;4.60;99.90;;;;;;4938680;29;20175;-77
2021/01/09 12:16:32;;;;;;;5.15;4.30;;;4.70;99.90;;;;;;4938165;29;20167;-78
2021/01/09 12:18:58;;;;;;;4.72;4.40;;;4.70;99.90;;;;;;4938205;29;20191;-76
2021/01/09 12:21:28;;;;;;;2.75;2.60;;;4.80;99.90;;;;;;4921103;29;20171;-79
2021/01/09 12:23:55;;;;;;;2.08;1.95;;;4.90;99.90;;;;;;4920872;29;20207;-76
2021/01/09 12:26:20;;;;;;;3.03;2.83;;;5.10;99.90;;;;;;4937852;29;20203;-76
2021/01/09 12:28:46;;;;;;;4.18;2.78;;;5.10;99.90;;;;;;4938275;29;20167;-77
2021/01/09 12:31:12;;;;;;;2.15;2.05;;;5.10;99.90;;;;;;4938072;29;20678;-77
2021/01/09 12:33:39;;;;;;;1.92;1.83;;;5.20;99.90;;;;;;4937998;29;20182;-75
2021/01/09 12:36:06;;;;;;;1.10;1.02;;;5.30;99.90;;;;;;4937664;29;20191;-76
2021/01/09 12:38:31;;;;;;;7.88;2.80;;;5.30;99.90;;;;;;4937800;29;20160;-77
2021/01/09 12:40:57;;;;;;;1.10;1.08;;;5.20;99.90;;;;;;4937732;29;20252;-76
2021/01/09 12:43:22;;;;;;;2.63;2.42;;;5.30;99.90;;;;;;4937683;29;20179;-76
2021/01/09 12:45:48;;;;;;;0.88;0.88;;;5.30;99.90;;;;;;4920681;29;20203;-76
2021/01/09 12:48:13;;;;;;;0.73;0.73;;;5.30;99.90;;;;;;4936526;29;20203;-77
2021/01/09 12:50:42;;;;;;;1.85;1.75;;;5.30;99.90;;;;;;4937487;29;20210;-77
2021/01/09 12:53:08;;;;;;;3.40;2.17;;;5.20;99.90;;;;;;4937463;29;20172;-76
2021/01/09 12:55:38;;;;;;;1.73;1.65;;;5.30;99.90;;;;;;4937269;29;20190;-77
2021/01/09 12:58:03;;;;;;;4.40;3.80;;;5.40;99.90;;;;;;4937351;29;20191;-76
2021/01/09 13:00:29;;;;;;;1.10;1.10;;;5.40;99.90;;;;;;4937150;29;20231;-76
2021/01/09 13:02:54;;;;;;;5.50;2.78;;;5.50;99.90;;;;;;4937332;29;20171;-75